Time;durP1;ratioP1;P1;durP2;ratioP2;P2;SDS_P1;SDS_P2;PMS_P1;PMS_P2;Temp;Humidity;BMP_temperature;BMP_pressure;BME280_temperature;BME280_humidity;BME280_pressure;Samples;Min_cycle;Max_cycle;Signal;HPM_P1;HPM_P2
2023/04/02 00:02:21;;;;;;;;;1.00;1.00;;;;;11.18;73.47;100864.94;5070727;28;45542;-72
2023/04/02 00:05:18;;;;;;;;;1.00;0.00;;;;;11.15;74.19;100860.47;5067295;28;45468;-72
2023/04/02 00:07:50;;;;;;;;;1.50;0.25;;;;;11.06;75.25;100859.28;5069731;28;46093;-71
2023/04/02 00:10:28;;;;;;;;;2.00;0.00;;;;;10.99;74.79;100847.72;5065191;28;45495;-71
2023/04/02 00:13:09;;;;;;;;;1.25;0.00;;;;;11.09;75.22;100862.00;5064979;28;45454;-71
2023/04/02 00:15:37;;;;;;;;;1.00;1.00;;;;;11.11;74.70;100857.72;5067473;28;45582;-71
2023/04/02 00:18:03;;;;;;;;;1.50;0.50;;;;;11.10;74.90;100867.28;5068728;28;46214;-71
2023/04/02 00:20:35;;;;;;;;;2.25;1.00;;;;;11.01;75.90;100860.88;5072114;28;45603;-72
2023/04/02 00:23:02;;;;;;;;;1.00;1.00;;;;;11.09;75.37;100870.72;5067084;28;45413;-71
2023/04/02 00:25:29;;;;;;;;;0.00;0.00;;;;;11.18;75.20;100870.16;5067719;28;45500;-72
2023/04/02 00:27:55;;;;;;;;;2.00;0.00;;;;;11.21;75.40;100877.19;5065023;28;46054;-71
2023/04/02 00:30:21;;;;;;;;;2.00;0.00;;;;;11.14;74.90;100860.41;5069767;28;45384;-73
2023/04/02 00:32:47;;;;;;;;;2.00;0.00;;;;;11.24;74.90;100877.28;5068308;28;45439;-71
2023/04/02 00:35:27;;;;;;;;;1.75;1.00;;;;;11.29;75.86;100888.78;5050638;28;45391;-71
2023/04/02 00:37:54;;;;;;;;;3.25;1.00;;;;;11.26;75.12;100889.59;5063796;28;46327;-72
2023/04/02 00:40:26;;;;;;;;;1.00;1.00;;;;;11.27;74.87;100883.50;5066233;28;45934;-72
2023/04/02 00:42:57;;;;;;;;;1.25;1.00;;;;;11.25;74.31;100886.91;5070068;28;45374;-74
2023/04/02 00:45:23;;;;;;;;;0.00;0.00;;;;;11.31;74.40;100881.88;5075104;28;45414;-72
2023/04/02 00:47:49;;;;;;;;;1.00;0.00;;;;;11.30;74.22;100881.00;5057698;28;47793;-72
2023/04/02 00:50:29;;;;;;;;;1.00;0.00;;;;;11.32;74.40;100883.66;5069000;28;45390;-73
2023/04/02 00:52:57;;;;;;;;;1.00;0.00;;;;;11.24;74.17;100890.34;5071031;28;45416;-71
2023/04/02 00:55:38;;;;;;;;;0.25;0.00;;;;;11.31;74.32;100887.13;5071283;28;45451;-71
2023/04/02 00:58:18;;;;;;;;;0.00;0.00;;;;;11.34;74.85;100876.78;5070179;28;45479;-71
2023/04/02 01:00:49;;;;;;;;;0.50;0.00;;;;;11.29;74.60;100868.75;5052620;28;45497;-75
2023/04/02 01:03:21;;;;;;;;;1.00;0.00;;;;;11.28;74.59;100876.53;5072510;28;45376;-75
2023/04/02 01:05:54;;;;;;;;;2.50;1.00;;;;;11.25;74.49;100872.09;5070858;28;46483;-71
2023/04/02 01:08:45;;;;;;;;;0.00;0.00;;;;;11.32;74.72;100870.56;5059324;28;45714;-72
2023/04/02 01:11:35;;;;;;;;;1.00;0.00;;;;;11.38;74.42;100885.56;5063783;28;45481;-72
2023/04/02 01:14:24;;;;;;;;;2.00;0.00;;;;;11.37;74.60;100894.28;5052949;28;45437;-72
2023/04/02 01:17:14;;;;;;;;;0.00;0.00;;;;;11.30;73.03;100878.38;5031493;28;45661;-72
2023/04/02 01:20:10;;;;;;;;;1.75;0.00;;;;;11.15;73.03;100870.91;5078893;28;45379;-74
2023/04/02 01:22:40;;;;;;;;;0.00;0.00;;;;;11.24;72.76;100882.50;5060975;28;45337;-72
2023/04/02 01:25:07;;;;;;;;;1.25;0.00;;;;;11.17;72.76;100875.31;5079447;28;45892;-71
2023/04/02 01:28:18;;;;;;;;;1.00;0.00;;;;;11.11;73.36;100882.13;5067095;28;45430;-71
2023/04/02 01:30:51;;;;;;;;;0.00;0.00;;;;;11.07;73.52;100877.63;5070496;28;46241;-73
2023/04/02 01:33:21;;;;;;;;;0.75;0.00;;;;;11.05;73.77;100874.06;5064720;28;45488;-75
2023/04/02 01:35:56;;;;;;;;;1.00;0.00;;;;;11.12;73.46;100883.00;5067463;28;45506;-73
2023/04/02 01:38:28;;;;;;;;;2.00;0.00;;;;;11.15;73.38;100885.72;5065632;28;45522;-72
2023/04/02 01:41:07;;;;;;;;;0.00;0.00;;;;;11.14;74.19;100884.84;5070420;28;46136;-70
2023/04/02 01:43:42;;;;;;;;;2.00;0.00;;;;;11.19;73.63;100884.09;5071019;28;45466;-72
2023/04/02 01:46:24;;;;;;;;;1.00;0.00;;;;;11.23;73.87;100886.88;5063466;28;45402;-73
2023/04/02 01:48:52;;;;;;;;;1.00;0.00;;;;;11.18;74.01;100882.31;5071176;28;45460;-72
2023/04/02 01:51:45;;;;;;;;;1.33;0.00;;;;;11.24;73.71;100891.28;5062560;28;45561;-73
2023/04/02 01:54:14;;;;;;;;;0.33;0.00;;;;;11.24;74.03;100888.66;5068073;28;45495;-75
2023/04/02 01:56:41;;;;;;;;;0.00;0.00;;;;;11.24;74.24;100890.34;5072625;28;45458;-75
2023/04/02 01:59:09;;;;;;;;;4.00;0.00;;;;;11.27;73.81;100893.09;5069348;28;45295;-71
2023/04/02 02:01:47;;;;;;;;;0.75;0.50;;;;;11.29;74.09;100889.69;5058297;28;46219;-75
2023/04/02 02:04:15;;;;;;;;;1.00;0.50;;;;;11.33;73.92;100883.69;5072589;28;45520;-72
2023/04/02 02:06:42;;;;;;;;;1.75;1.00;;;;;11.31;73.79;100876.66;5064453;28;45521;-74
2023/04/02 02:09:15;;;;;;;;;2.00;1.00;;;;;11.37;73.95;100892.53;5050093;28;45573;-73
2023/04/02 02:11:41;;;;;;;;;1.25;0.00;;;;;11.43;73.31;100887.50;5070731;28;46201;-75
2023/04/02 02:14:17;;;;;;;;;0.00;0.00;;;;;11.38;73.54;100890.81;5072425;28;45514;-75
2023/04/02 02:16:45;;;;;;;;;1.00;0.00;;;;;11.28;74.19;100887.91;5066583;28;45431;-71
2023/04/02 02:19:42;;;;;;;;;0.33;0.00;;;;;11.33;74.13;100895.91;5069169;28;45451;-70
2023/04/02 02:22:34;;;;;;;;;1.00;0.50;;;;;11.33;74.60;100896.78;5066141;28;46219;-71
2023/04/02 02:25:10;;;;;;;;;3.25;0.00;;;;;11.27;74.22;100885.25;5068988;28;45485;-71
2023/04/02 02:28:06;;;;;;;;;1.00;0.00;;;;;11.28;74.25;100892.22;5071274;28;45405;-73
2023/04/02 02:30:41;;;;;;;;;1.00;1.00;;;;;11.22;74.66;100900.78;5072570;28;45527;-71
2023/04/02 02:33:32;;;;;;;;;1.00;0.00;;;;;11.24;75.21;100906.06;5067513;28;46074;-71
2023/04/02 02:36:12;;;;;;;;;0.00;0.00;;;;;11.24;75.32;100900.81;5063239;28;45344;-72
2023/04/02 02:38:41;;;;;;;;;1.00;0.00;;;;;11.29;75.32;100896.63;5069049;28;45439;-71
2023/04/02 02:41:38;;;;;;;;;0.33;0.00;;;;;11.23;75.78;100896.44;5066555;28;45526;-72
2023/04/02 02:44:10;;;;;;;;;4.00;0.00;;;;;11.28;75.30;100914.06;5072208;28;46353;-71
2023/04/02 02:46:44;;;;;;;;;1.50;0.00;;;;;11.22;75.73;100903.41;5054121;28;45638;-71
2023/04/02 02:49:27;;;;;;;;;0.50;0.00;;;;;11.33;75.42;100917.72;5067396;28;45402;-71
2023/04/02 02:52:08;;;;;;;;;0.75;0.00;;;;;11.36;75.52;100919.56;5071366;28;45469;-71
2023/04/02 02:54:41;;;;;;;;;1.00;0.00;;;;;11.31;75.83;100908.91;5073001;28;46558;-70
2023/04/02 02:57:12;;;;;;;;;0.00;0.00;;;;;11.40;75.02;100910.06;5071382;28;45592;-75
2023/04/02 02:59:37;;;;;;;;;2.75;2.00;;;;;11.37;75.55;100903.00;5052446;28;45580;-72
2023/04/02 03:02:05;;;;;;;;;1.75;1.00;;;;;11.38;75.45;100925.72;5070787;28;45513;-74
2023/04/02 03:04:34;;;;;;;;;1.00;0.50;;;;;11.33;75.29;100941.25;5064284;28;45497;-74
2023/04/02 03:07:02;;;;;;;;;0.75;0.00;;;;;11.29;75.13;100939.38;5071027;28;45500;-72
2023/04/02 03:10:09;;;;;;;;;1.25;1.00;;;;;11.26;75.08;100952.38;5065671;28;45453;-75
2023/04/02 03:13:14;;;;;;;;;0.00;0.00;;;;;11.25;74.17;100947.94;5036963;28;45518;-74
2023/04/02 03:16:06;;;;;;;;;0.00;0.00;;;;;11.18;74.56;100948.59;5026912;28;45556;-75
2023/04/02 03:18:43;;;;;;;;;1.00;0.00;;;;;11.19;75.00;100942.53;5065924;28;45518;-74
2023/04/02 03:21:34;;;;;;;;;0.00;0.00;;;;;11.25;75.05;100947.06;5050981;28;45503;-75
2023/04/02 03:24:05;;;;;;;;;1.00;0.00;;;;;11.18;74.89;100960.75;5070965;28;45453;-75
2023/04/02 03:26:38;;;;;;;;;1.00;0.00;;;;;11.25;74.92;100963.66;5064535;28;46245;-73
2023/04/02 03:29:14;;;;;;;;;3.00;0.00;;;;;11.18;74.24;100974.75;5063639;28;45532;-75
2023/04/02 03:31:50;;;;;;;;;0.00;0.00;;;;;11.06;73.44;100970.00;5054310;28;45540;-72
2023/04/02 03:34:19;;;;;;;;;0.33;0.00;;;;;10.95;73.71;100973.94;5068203;28;45512;-74
2023/04/02 03:37:01;;;;;;;;;0.33;0.00;;;;;10.82;74.01;100963.88;5070801;28;46093;-74
2023/04/02 03:39:39;;;;;;;;;0.25;0.00;;;;;10.84;74.24;100972.66;5068876;28;45643;-75
2023/04/02 03:42:14;;;;;;;;;0.00;0.00;;;;;10.84;74.25;100967.44;5065738;28;45489;-75
2023/04/02 03:44:46;;;;;;;;;2.00;0.00;;;;;10.87;74.41;100978.91;5068126;28;45473;-72
2023/04/02 03:47:37;;;;;;;;;1.00;0.67;;;;;10.74;74.84;100971.44;5065961;28;46093;-72
2023/04/02 03:50:26;;;;;;;;;0.00;0.00;;;;;10.71;74.91;100971.34;5069582;28;45571;-73
2023/04/02 03:52:51;;;;;;;;;0.67;0.00;;;;;10.67;75.29;100975.56;5058071;28;45477;-71
2023/04/02 03:55:21;;;;;;;;;0.00;0.00;;;;;10.74;75.09;100969.75;5062098;28;45320;-73
2023/04/02 03:57:47;;;;;;;;;0.00;0.00;;;;;10.77;75.47;100963.72;5074130;28;45976;-74
2023/04/02 04:00:19;;;;;;;;;0.00;0.00;;;;;10.72;75.80;100952.19;5054090;28;45450;-76
2023/04/02 04:02:57;;;;;;;;;1.00;1.00;;;;;10.63;76.82;100938.84;5064709;28;45445;-73
2023/04/02 04:05:36;;;;;;;;;0.00;0.00;;;;;10.68;76.06;100939.88;5063957;28;45513;-75
2023/04/02 04:08:06;;;;;;;;;0.00;0.00;;;;;10.73;75.66;100951.38;5072905;28;46209;-75
2023/04/02 04:10:34;;;;;;;;;2.00;1.00;;;;;10.68;75.98;100951.22;5058582;28;45757;-76
2023/04/02 04:13:13;;;;;;;;;1.00;1.00;;;;;10.78;76.53;100954.16;5076366;28;45761;-76
2023/04/02 04:15:44;;;;;;;;;2.00;1.00;;;;;10.88;76.27;100964.09;5078392;27;45303;-74
2023/04/02 04:18:36;;;;;;;;;1.00;1.00;;;;;10.94;76.61;100954.75;5079958;28;46193;-76
2023/04/02 04:21:12;;;;;;;;;2.50;1.00;;;;;10.95;75.86;100943.44;5080505;28;45382;-75
2023/04/02 04:23:39;;;;;;;;;1.75;1.00;;;;;11.03;76.40;100948.06;5080532;28;45404;-76
2023/04/02 04:26:11;;;;;;;;;2.00;1.00;;;;;10.98;76.54;100954.84;5080071;28;45220;-74
2023/04/02 04:29:04;;;;;;;;;2.67;1.00;;;;;11.02;76.34;100952.41;5079058;28;46212;-76
2023/04/02 04:31:40;;;;;;;;;2.00;1.00;;;;;11.05;75.91;100942.06;5060424;28;45438;-75
2023/04/02 04:34:28;;;;;;;;;1.00;0.75;;;;;11.08;76.04;100956.94;5058640;28;45893;-75
2023/04/02 04:37:06;;;;;;;;;1.33;0.33;;;;;11.08;75.76;100967.41;5080576;28;45395;-74
2023/04/02 04:40:04;;;;;;;;;4.00;1.00;;;;;11.12;75.93;100974.50;5080173;28;45488;-75
2023/04/02 04:42:33;;;;;;;;;1.33;1.00;;;;;11.18;75.51;100974.75;5079493;28;45474;-75
2023/04/02 04:45:02;;;;;;;;;2.00;0.00;;;;;11.17;74.79;100978.19;5079061;27;45438;-75
2023/04/02 04:47:34;;;;;;;;;1.00;1.00;;;;;11.11;74.99;100984.09;5079714;27;45371;-75
2023/04/02 04:50:15;;;;;;;;;2.00;1.50;;;;;11.01;74.70;100974.16;5062241;28;46177;-76
2023/04/02 04:52:43;;;;;;;;;2.00;0.33;;;;;11.14;74.90;100996.38;5079000;28;45517;-71
2023/04/02 04:55:33;;;;;;;;;1.67;0.00;;;;;11.22;74.73;100996.63;5077954;28;45380;-76
2023/04/02 04:58:07;;;;;;;;;0.00;0.00;;;;;11.22;73.86;100979.25;5060348;28;45283;-75
2023/04/02 05:01:04;;;;;;;;;1.00;1.00;;;;;11.22;74.17;100989.72;5073593;28;45467;-75
2023/04/02 05:03:32;;;;;;;;;1.67;0.00;;;;;11.26;73.81;100990.69;5074943;28;45422;-75
2023/04/02 05:06:09;;;;;;;;;1.00;1.00;;;;;11.28;73.71;100995.16;5079571;28;45544;-75
2023/04/02 05:08:42;;;;;;;;;1.00;1.00;;;;;11.30;73.57;100992.56;5080229;28;45306;-74
2023/04/02 05:11:27;;;;;;;;;0.00;0.00;;;;;11.19;73.67;100971.28;5079780;28;45629;-73
2023/04/02 05:14:01;;;;;;;;;1.00;1.00;;;;;11.22;73.50;100978.34;5079949;28;45466;-72
2023/04/02 05:16:47;;;;;;;;;0.33;0.00;;;;;11.34;73.96;101004.94;5079026;28;45518;-72
2023/04/02 05:19:21;;;;;;;;;1.00;0.67;;;;;11.25;73.94;100987.19;5060315;28;45426;-73
2023/04/02 05:21:54;;;;;;;;;1.00;0.00;;;;;11.38;74.15;101014.66;5069808;28;46260;-71
2023/04/02 05:24:38;;;;;;;;;1.00;0.00;;;;;11.39;74.07;101011.19;5049498;28;45593;-71
2023/04/02 05:27:37;;;;;;;;;1.00;0.00;;;;;11.31;74.32;101021.38;5075960;28;45654;-71
2023/04/02 05:30:45;;;;;;;;;0.33;0.00;;;;;11.26;75.03;101024.69;5060185;28;45575;-70
2023/04/02 05:33:27;;;;;;;;;1.00;0.33;;;;;11.16;75.87;101015.66;5077762;28;45472;-71
2023/04/02 05:36:07;;;;;;;;;2.00;1.00;;;;;11.09;77.02;101005.81;5079455;27;45462;-71
2023/04/02 05:38:36;;;;;;;;;0.00;0.00;;;;;11.09;77.22;101016.25;5079026;28;45431;-71
2023/04/02 05:41:10;;;;;;;;;1.00;0.00;;;;;11.15;76.53;101026.94;5079591;28;45462;-71
2023/04/02 05:43:40;;;;;;;;;1.00;1.00;;;;;11.17;76.27;101032.22;5078208;28;46011;-71
2023/04/02 05:46:16;;;;;;;;;1.67;1.00;;;;;11.06;77.27;101027.50;5078238;28;45746;-71
2023/04/02 05:48:47;;;;;;;;;2.00;0.00;;;;;11.15;77.20;101034.78;5077225;28;45486;-73
2023/04/02 05:51:43;;;;;;;;;2.00;0.00;;;;;11.20;77.06;101038.44;5078391;28;45410;-70
2023/04/02 05:54:33;;;;;;;;;2.00;1.00;;;;;11.24;76.72;101037.72;5077386;28;46303;-71
2023/04/02 05:57:03;;;;;;;;;1.00;0.00;;;;;11.21;77.03;101031.50;5063883;28;45386;-71
2023/04/02 05:59:35;;;;;;;;;0.00;0.00;;;;;11.26;76.64;101043.91;5077400;28;45245;-71
2023/04/02 06:02:05;;;;;;;;;2.50;1.00;;;;;11.19;76.62;101028.81;5078419;28;45540;-71
2023/04/02 06:04:43;;;;;;;;;1.00;1.00;;;;;11.35;76.14;101051.16;5077932;28;45389;-71
2023/04/02 06:07:15;;;;;;;;;1.00;1.00;;;;;11.34;76.22;101046.78;5077672;28;45926;-72
2023/04/02 06:10:22;;;;;;;;;1.00;0.00;;;;;11.34;75.96;101045.06;5078057;28;45411;-70
2023/04/02 06:12:54;;;;;;;;;3.00;1.00;;;;;11.37;76.02;101049.50;4995548;28;45539;-71
2023/04/02 06:15:21;;;;;;;;;1.33;1.00;;;;;11.39;75.98;101039.09;5066799;28;45512;-71
2023/04/02 06:18:04;;;;;;;;;2.50;1.00;;;;;11.28;76.26;101025.63;5077760;28;45558;-71
2023/04/02 06:20:31;;;;;;;;;1.00;0.75;;;;;11.43;75.75;101052.31;5078579;28;45399;-71
2023/04/02 06:23:12;;;;;;;;;0.33;0.33;;;;;11.47;75.99;101054.19;5078949;28;45423;-71
2023/04/02 06:25:45;;;;;;;;;1.00;1.00;;;;;11.47;75.90;101055.94;5070971;28;45405;-73
2023/04/02 06:28:16;;;;;;;;;1.67;1.00;;;;;11.43;75.45;101061.91;5069285;28;45364;-71
2023/04/02 06:30:43;;;;;;;;;2.00;1.00;;;;;11.37;76.03;101054.72;5076417;28;45561;-71
2023/04/02 06:33:11;;;;;;;;;4.00;1.00;;;;;11.38;75.56;101059.13;5076968;28;45597;-71
2023/04/02 06:35:45;;;;;;;;;1.00;1.00;;;;;11.47;75.58;101069.00;5077098;28;45386;-71
2023/04/02 06:38:20;;;;;;;;;1.33;1.00;;;;;11.51;75.71;101073.50;5076377;28;45833;-75
2023/04/02 06:40:51;;;;;;;;;2.67;1.00;;;;;11.51;75.51;101069.16;5076535;28;45714;-75
2023/04/02 06:43:32;;;;;;;;;7.50;6.50;;;;;11.51;75.80;101068.28;5077087;28;45461;-73
2023/04/02 06:46:02;;;;;;;;;3.00;1.50;;;;;11.62;75.69;101080.00;5076971;28;46214;-72
2023/04/02 06:48:30;;;;;;;;;1.00;0.00;;;;;11.68;75.86;101093.31;5067468;28;45436;-72
2023/04/02 06:51:06;;;;;;;;;2.33;1.00;;;;;11.72;75.77;101092.56;5051877;28;45679;-73
2023/04/02 06:53:41;;;;;;;;;1.50;1.50;;;;;11.51;76.92;101090.09;5077103;28;45712;-72
2023/04/02 06:56:19;;;;;;;;;4.75;4.00;;;;;11.55;76.81;101091.09;5076470;28;45356;-71
2023/04/02 06:58:45;;;;;;;;;4.25;2.00;;;;;11.47;76.20;101085.59;5076595;28;45383;-75
2023/04/02 07:01:22;;;;;;;;;3.50;2.00;;;;;11.51;75.49;101086.59;5077009;28;45395;-70
2023/04/02 07:03:48;;;;;;;;;2.00;0.33;;;;;11.59;75.51;101090.38;5061433;28;45439;-72
2023/04/02 07:06:16;;;;;;;;;2.00;1.00;;;;;11.60;75.32;101105.25;5072062;28;46326;-72
2023/04/02 07:08:42;;;;;;;;;3.75;1.00;;;;;11.62;75.68;101111.41;5041281;28;45375;-75
2023/04/02 07:11:14;;;;;;;;;1.75;1.75;;;;;11.71;75.42;101103.88;5076513;28;45295;-71
2023/04/02 07:13:40;;;;;;;;;4.50;1.75;;;;;11.69;75.70;101104.66;5077392;28;45414;-71
2023/04/02 07:16:10;;;;;;;;;3.25;3.00;;;;;11.85;75.68;101112.19;5076837;27;45586;-71
2023/04/02 07:18:35;;;;;;;;;3.75;2.25;;;;;11.96;75.60;101115.22;5045083;28;45367;-73
2023/04/02 07:21:01;;;;;;;;;5.50;3.50;;;;;12.03;75.70;101111.06;5040360;28;45335;-72
2023/04/02 07:23:26;;;;;;;;;3.00;3.00;;;;;11.98;75.03;101102.16;5077218;28;45352;-73
2023/04/02 07:25:53;;;;;;;;;5.00;2.50;;;;;12.09;75.40;101114.75;5058783;28;46712;-74
2023/04/02 07:28:20;;;;;;;;;6.00;4.50;;;;;12.03;75.55;101111.06;5045044;28;45468;-72
2023/04/02 07:30:46;;;;;;;;;3.75;2.00;;;;;12.17;75.27;101127.22;5054401;28;45569;-70
2023/04/02 07:33:14;;;;;;;;;3.50;2.00;;;;;12.23;75.16;101135.28;5076761;28;45849;-70
2023/04/02 07:35:40;;;;;;;;;3.00;2.00;;;;;12.27;75.01;101137.16;5076027;28;46002;-73
2023/04/02 07:38:05;;;;;;;;;2.00;2.00;;;;;12.34;74.37;101133.91;5076665;28;45423;-71
2023/04/02 07:40:31;;;;;;;;;4.75;3.00;;;;;12.41;73.89;101130.63;5042588;28;45621;-70
2023/04/02 07:42:56;;;;;;;;;4.75;2.50;;;;;12.45;74.41;101126.38;5076468;28;45533;-72
2023/04/02 07:45:22;;;;;;;;;3.00;3.00;;;;;12.37;74.44;101110.41;5076602;28;45518;-72
2023/04/02 07:47:47;;;;;;;;;5.00;4.00;;;;;12.41;74.83;101125.38;5075381;28;45910;-71
2023/04/02 07:50:13;;;;;;;;;8.50;3.00;;;;;12.44;75.03;101129.88;5075895;28;45501;-70
2023/04/02 07:52:42;;;;;;;;;5.50;2.00;;;;;12.45;74.94;101119.41;5074961;28;45421;-72
2023/04/02 07:55:11;;;;;;;;;6.25;2.75;;;;;12.74;74.09;101140.41;5075893;28;45434;-76
2023/04/02 07:57:40;;;;;;;;;3.25;2.25;;;;;12.82;73.74;101141.53;5076132;28;45504;-76
2023/04/02 08:00:08;;;;;;;;;6.25;3.00;;;;;12.71;74.35;101128.09;5075638;28;45529;-76
2023/04/02 08:02:34;;;;;;;;;3.00;1.75;;;;;12.69;73.57;101141.97;5058351;28;45738;-72
2023/04/02 08:05:00;;;;;;;;;2.75;2.00;;;;;12.66;73.65;101141.91;5075981;28;45618;-72
2023/04/02 08:07:26;;;;;;;;;1.00;1.00;;;;;12.64;73.44;101143.59;5076328;28;45505;-75
2023/04/02 08:09:52;;;;;;;;;3.25;2.00;;;;;12.62;73.50;101145.28;5043002;28;45702;-75
2023/04/02 08:12:17;;;;;;;;;1.67;1.67;;;;;12.61;73.51;101141.75;5041225;28;45549;-74
2023/04/02 08:14:43;;;;;;;;;2.00;1.00;;;;;12.43;73.02;101115.84;5051257;28;46929;-73
2023/04/02 08:17:09;;;;;;;;;3.00;2.33;;;;;12.47;73.46;101150.91;5046557;28;45433;-74
2023/04/02 08:19:34;;;;;;;;;5.00;4.00;;;;;12.38;74.16;101148.88;5056358;28;45470;-76
2023/04/02 08:22:00;;;;;;;;;2.00;1.00;;;;;12.42;74.42;101158.63;5074145;28;45402;-75
2023/04/02 08:24:25;;;;;;;;;3.00;2.00;;;;;12.47;74.06;101145.66;5075820;28;47062;-76
2023/04/02 08:26:52;;;;;;;;;2.00;1.67;;;;;12.40;73.96;101123.63;5075165;27;45496;-71
2023/04/02 08:29:19;;;;;;;;;3.00;2.00;;;;;12.96;73.58;101169.91;5075994;28;45466;-78
2023/04/02 08:31:45;;;;;;;;;5.25;3.00;;;;;13.23;73.00;101159.31;5075290;28;45403;-72
2023/04/02 08:34:10;;;;;;;;;8.75;8.00;;;;;13.50;71.52;101162.75;5074581;28;45486;-72
2023/04/02 08:36:38;;;;;;;;;3.00;1.00;;;;;13.63;70.47;101173.63;5075459;28;45316;-76
2023/04/02 08:39:09;;;;;;;;;2.50;1.00;;;;;13.77;70.06;101176.59;5075173;28;45505;-71
2023/04/02 08:42:00;;;;;;;;;3.00;1.25;;;;;13.78;69.36;101184.53;5074626;28;45308;-74
2023/04/02 08:44:44;;;;;;;;;2.00;1.00;;;;;13.71;68.08;101204.47;5075491;28;45513;-71
2023/04/02 08:47:14;;;;;;;;;1.00;0.67;;;;;13.67;67.83;101192.13;5074460;28;45536;-71
2023/04/02 08:50:32;;;;;;;;;3.00;2.00;;;;;13.76;68.35;101222.09;5070092;28;45458;-73
2023/04/02 08:53:05;;;;;;;;;2.33;1.00;;;;;13.79;68.90;101214.31;5041106;28;45561;-77
2023/04/02 08:56:02;;;;;;;;;2.00;1.00;;;;;13.95;67.32;101221.75;5052853;28;46160;-71
2023/04/02 08:58:43;;;;;;;;;0.33;0.33;;;;;14.00;66.38;101211.38;5056017;27;45644;-76
2023/04/02 09:01:43;;;;;;;;;2.67;1.00;;;;;14.17;67.41;101210.09;5074517;28;45555;-72
2023/04/02 09:04:22;;;;;;;;;3.00;2.00;;;;;14.37;66.84;101218.47;5075456;28;45364;-75
2023/04/02 09:06:51;;;;;;;;;2.00;2.00;;;;;14.41;66.49;101224.69;5065289;28;46332;-77
2023/04/02 09:09:18;;;;;;;;;4.00;3.00;;;;;14.38;66.31;101233.38;5055156;28;45627;-76
2023/04/02 09:11:51;;;;;;;;;3.25;2.50;;;;;14.23;65.67;101233.00;5066007;27;46076;-75
2023/04/02 09:14:20;;;;;;;;;1.67;1.67;;;;;14.18;66.48;101242.50;5076774;27;45575;-76
2023/04/02 09:16:50;;;;;;;;;0.67;0.00;;;;;14.13;66.58;101234.50;5077641;27;45572;-71
2023/04/02 09:19:24;;;;;;;;;1.33;1.00;;;;;14.02;67.03;101225.44;5078005;28;45501;-74
2023/04/02 09:21:58;;;;;;;;;0.00;0.00;;;;;14.02;67.28;101230.69;5074976;28;45489;-77
2023/04/02 09:24:24;;;;;;;;;1.00;1.00;;;;;13.74;67.23;101229.94;5072358;28;45524;-78
2023/04/02 09:26:50;;;;;;;;;1.33;1.00;;;;;13.76;67.59;101228.22;5070711;28;45920;-71
2023/04/02 09:29:36;;;;;;;;;1.67;0.67;;;;;13.87;67.32;101237.31;5078045;28;45437;-73
2023/04/02 09:32:18;;;;;;;;;2.00;2.00;;;;;13.97;67.82;101250.72;5064792;28;45458;-72
2023/04/02 09:34:46;;;;;;;;;14.25;11.50;;;;;13.99;67.29;101244.63;5066563;28;45288;-70
2023/04/02 09:37:24;;;;;;;;;5.75;5.00;;;;;13.79;67.48;101240.59;5077841;28;46097;-72
2023/04/02 09:39:50;;;;;;;;;2.00;1.00;;;;;13.81;68.25;101267.78;5077082;28;45519;-73
2023/04/02 09:42:32;;;;;;;;;2.00;2.00;;;;;13.71;67.70;101277.13;5077468;28;45559;-72
2023/04/02 09:45:17;;;;;;;;;1.33;1.00;;;;;13.69;67.74;101271.81;5066124;28;45456;-72
2023/04/02 09:47:42;;;;;;;;;23.50;20.25;;;;;13.73;67.28;101265.81;5075915;28;45723;-73
2023/04/02 09:50:20;;;;;;;;;265.00;215.00;;;;;13.75;66.15;101278.06;5059390;28;45408;-76
2023/04/02 09:52:47;;;;;;;;;3.00;3.00;;;;;13.74;67.05;101277.19;5074664;28;45522;-73
2023/04/02 09:55:26;;;;;;;;;2.00;2.00;;;;;13.77;65.32;101279.91;5077806;28;45443;-72
2023/04/02 09:58:09;;;;;;;;;2.00;2.00;;;;;13.58;66.64;101283.72;5057319;28;47684;-78
2023/04/02 10:00:35;;;;;;;;;2.00;1.00;;;;;13.58;67.47;101277.59;5076403;28;45478;-76
2023/04/02 10:03:18;;;;;;;;;3.33;1.00;;;;;13.58;66.90;101281.09;5076978;28;45524;-73
2023/04/02 10:05:46;;;;;;;;;17.25;14.25;;;;;13.17;66.75;101207.28;5075759;28;45564;-76
2023/04/02 10:08:42;;;;;;;;;7.25;4.50;;;;;13.39;67.19;101271.81;5077366;28;46217;-73
2023/04/02 10:11:14;;;;;;;;;8.50;6.75;;;;;13.31;67.51;101274.19;5061833;28;45525;-74
2023/04/02 10:13:56;;;;;;;;;4.00;3.00;;;;;13.42;67.17;101274.50;5059316;27;45474;-77
2023/04/02 10:16:25;;;;;;;;;1.00;1.00;;;;;13.70;67.05;101268.34;5058502;28;45658;-77
2023/04/02 10:18:57;;;;;;;;;9.00;7.00;;;;;14.07;66.01;101273.75;5071585;27;46200;-72
2023/04/02 10:21:30;;;;;;;;;2.00;1.00;;;;;14.23;65.59;101260.16;5080480;28;45431;-77
2023/04/02 10:23:58;;;;;;;;;4.00;2.00;;;;;14.51;65.87;101259.13;5063107;28;45322;-73
2023/04/02 10:27:08;;;;;;;;;1.33;1.00;;;;;14.57;65.73;101254.94;5067105;28;45540;-71
2023/04/02 10:30:01;;;;;;;;;4.00;3.00;;;;;14.69;67.58;101260.47;5010680;28;46410;-75
2023/04/02 10:32:47;;;;;;;;;2.33;2.00;;;;;14.74;67.15;101258.84;5072786;28;45540;-74
2023/04/02 10:35:40;;;;;;;;;3.00;3.00;;;;;14.78;67.14;101268.59;5066488;28;45408;-72
2023/04/02 10:38:22;;;;;;;;;2.00;2.00;;;;;14.80;66.31;101266.00;5036284;28;46459;-71
2023/04/02 10:40:58;;;;;;;;;2.00;1.00;;;;;14.64;65.41;101270.91;5075549;27;45467;-72
2023/04/02 10:43:49;;;;;;;;;3.00;0.33;;;;;14.31;66.14;101274.38;5077110;28;45347;-73
2023/04/02 10:46:23;;;;;;;;;1.00;1.00;;;;;14.25;65.75;101270.72;5075663;28;45401;-72
2023/04/02 10:49:08;;;;;;;;;2.00;1.00;;;;;14.34;65.21;101276.19;5058979;28;45767;-71
2023/04/02 10:51:54;;;;;;;;;8.00;6.33;;;;;14.58;64.68;101268.09;5072593;28;46374;-74
2023/04/02 10:54:35;;;;;;;;;1.00;0.00;;;;;14.66;63.72;101271.81;5073075;28;45662;-74
2023/04/02 10:57:23;;;;;;;;;2.00;1.00;;;;;14.61;63.11;101288.34;5073038;28;45492;-74
2023/04/02 10:59:56;;;;;;;;;1.67;1.67;;;;;14.45;64.07;101280.00;5055425;28;45450;-73
2023/04/02 11:02:31;;;;;;;;;2.00;1.00;;;;;14.36;65.23;101285.00;5053685;28;46247;-72
2023/04/02 11:05:05;;;;;;;;;1.33;1.00;;;;;14.38;65.39;101262.28;5074562;28;45540;-73
2023/04/02 11:07:40;;;;;;;;;1.00;1.00;;;;;14.58;65.21;101282.97;5075755;28;45390;-73
2023/04/02 11:10:06;;;;;;;;;1.67;0.00;;;;;14.55;65.52;101278.50;5076607;28;45532;-74
2023/04/02 11:12:45;;;;;;;;;0.00;0.00;;;;;14.53;65.84;101286.34;5075186;27;45653;-73
2023/04/02 11:15:17;;;;;;;;;1.00;1.00;;;;;14.44;66.15;101293.09;5074377;28;45434;-75
2023/04/02 11:17:44;;;;;;;;;1.00;1.00;;;;;14.51;66.56;101279.28;5075883;28;45478;-71
2023/04/02 11:20:47;;;;;;;;;2.00;0.67;;;;;14.62;66.59;101290.09;5075420;28;45574;-74
2023/04/02 11:23:16;;;;;;;;;2.00;2.00;;;;;14.73;66.60;101285.13;5074522;28;45420;-73
2023/04/02 11:25:42;;;;;;;;;0.33;0.33;;;;;14.61;66.53;101281.31;5076271;28;45517;-74
2023/04/02 11:28:31;;;;;;;;;1.33;1.00;;;;;14.64;66.62;101280.50;5044983;28;45410;-72
2023/04/02 11:30:57;;;;;;;;;1.00;1.00;;;;;14.55;66.34;101289.03;5076680;28;45465;-73
2023/04/02 11:33:41;;;;;;;;;2.33;1.00;;;;;14.46;66.96;101286.16;5076586;28;45375;-72
2023/04/02 11:36:44;;;;;;;;;3.00;1.00;;;;;14.48;67.63;101288.00;5076868;28;45657;-73
2023/04/02 11:39:10;;;;;;;;;3.00;1.00;;;;;14.60;66.80;101268.13;5076988;28;45434;-72
2023/04/02 11:42:03;;;;;;;;;2.00;2.00;;;;;14.81;66.89;101288.81;5076737;28;45382;-73
2023/04/02 11:44:28;;;;;;;;;1.00;1.00;;;;;14.86;66.99;101277.56;5075865;28;45416;-73
2023/04/02 11:47:18;;;;;;;;;1.00;0.67;;;;;15.00;67.19;101274.34;5076378;28;45497;-72
2023/04/02 11:50:05;;;;;;;;;2.00;1.00;;;;;15.00;66.00;101269.09;5064912;28;45554;-73
2023/04/02 11:52:50;;;;;;;;;2.00;2.00;;;;;14.99;65.96;101268.22;5056332;28;45459;-73
2023/04/02 11:55:31;;;;;;;;;5.00;4.00;;;;;14.97;66.63;101283.06;5073062;27;46189;-73
2023/04/02 11:58:08;;;;;;;;;2.00;2.00;;;;;14.86;67.07;101289.81;5075677;28;45422;-73
2023/04/02 12:00:52;;;;;;;;;1.00;1.00;;;;;14.78;66.94;101278.22;5070886;28;45497;-74
2023/04/02 12:03:44;;;;;;;;;4.00;2.33;;;;;14.82;66.14;101286.25;5070648;28;45734;-73
2023/04/02 12:06:29;;;;;;;;;4.00;3.00;;;;;14.91;65.56;101285.56;5061588;28;45952;-72